Time;durP1;ratioP1;P1;durP2;ratioP2;P2;SDS_P1;SDS_P2;PMS_P1;PMS_P2;Temp;Humidity;BMP_temperature;BMP_pressure;BME280_temperature;BME280_humidity;BME280_pressure;Samples;Min_cycle;Max_cycle;Signal;HPM_P1;HPM_P2
2022/01/15 00:02:18;;;;;;;19.17;9.20;;;;;;;;;;4904056;29;20116;-93
2022/01/15 00:04:44;;;;;;;17.45;8.93;;;;;;;;;;4887214;29;20028;-94
2022/01/15 00:07:10;;;;;;;15.88;8.75;;;;;;;;;;4903619;29;20420;-93
2022/01/15 00:09:38;;;;;;;17.15;9.25;;;;;;;;;;4887396;29;20439;-93
2022/01/15 00:12:06;;;;;;;17.02;8.70;;;;;;;;;;4903702;29;20031;-93
2022/01/15 00:14:38;;;;;;;15.82;8.82;;;;;;;;;;4903603;29;20025;-93
2022/01/15 00:17:14;;;;;;;16.45;8.70;;;;;;;;;;4887096;29;20025;-94
2022/01/15 00:19:43;;;;;;;15.00;8.20;;;;;;;;;;4903514;29;20033;-93
2022/01/15 00:22:13;;;;;;;16.50;9.45;;;;;;;;;;4903799;29;20077;-93
2022/01/15 00:30:46;;;;;;;15.73;8.30;;;;;;;;;;4903627;29;20080;-92
2022/01/15 00:33:12;;;;;;;16.40;8.68;;;;;;;;;;4903247;29;20044;-93
2022/01/15 00:35:38;;;;;;;15.32;8.82;;;;;;;;;;4903407;29;20028;-93
2022/01/15 00:38:04;;;;;;;19.42;9.10;;;;;;;;;;4903438;29;20348;-94
2022/01/15 00:40:30;;;;;;;15.60;9.50;;;;;;;;;;4886649;29;20048;-94
2022/01/15 00:42:57;;;;;;;15.68;8.77;;;;;;;;;;4903279;29;20036;-94
2022/01/15 00:45:23;;;;;;;17.75;9.05;;;;;;;;;;4903458;29;20055;-93
2022/01/15 00:47:50;;;;;;;17.98;9.43;;;;;;;;;;4886488;29;20060;-93
2022/01/15 00:50:16;;;;;;;15.07;8.80;;;;;;;;;;4903015;29;20033;-93
2022/01/15 00:52:42;;;;;;;17.95;10.10;;;;;;;;;;4903624;29;20020;-94
2022/01/15 00:55:09;;;;;;;16.92;9.40;;;;;;;;;;4903203;29;20441;-93
2022/01/15 00:57:35;;;;;;;15.05;8.50;;;;;;;;;;4902951;29;20024;-92
2022/01/15 01:00:01;;;;;;;16.92;9.50;;;;;;;;;;4902784;29;20412;-93
2022/01/15 01:02:28;;;;;;;20.67;9.10;;;;;;;;;;4902529;29;20049;-93
2022/01/15 01:04:54;;;;;;;14.20;8.40;;;;;;;;;;4902959;29;20029;-93
2022/01/15 01:07:20;;;;;;;16.42;8.73;;;;;;;;;;4886289;29;20062;-93
2022/01/15 01:10:10;;;;;;;16.27;8.80;;;;;;;;;;4902667;29;20029;-94
2022/01/15 01:23:04;;;;;;;13.80;7.85;;;;;;;;;;4902584;29;20087;-94
2022/01/15 01:25:37;;;;;;;15.95;8.95;;;;;;;;;;4902537;29;20404;-93
2022/01/15 01:28:09;;;;;;;17.08;9.63;;;;;;;;;;4902542;29;20082;-93
2022/01/15 01:30:46;;;;;;;15.88;8.77;;;;;;;;;;4902430;29;20025;-92
2022/01/15 01:36:00;;;;;;;15.40;9.30;;;;;;;;;;4902414;29;20036;-92
2022/01/15 01:38:31;;;;;;;15.93;9.70;;;;;;;;;;4902234;29;20532;-93
2022/01/15 01:40:59;;;;;;;15.95;8.75;;;;;;;;;;4902196;29;20036;-92
2022/01/15 01:43:52;;;;;;;16.02;8.80;;;;;;;;;;4902551;29;20044;-93
2022/01/15 01:46:18;;;;;;;15.93;9.27;;;;;;;;;;4902099;29;20036;-92
2022/01/15 01:48:45;;;;;;;17.42;9.23;;;;;;;;;;4902316;29;20029;-93
2022/01/15 01:51:20;;;;;;;15.77;9.05;;;;;;;;;;4902188;29;20349;-93
2022/01/15 01:53:47;;;;;;;13.55;8.10;;;;;;;;;;4902513;29;20073;-93
2022/01/15 01:56:13;;;;;;;16.35;9.43;;;;;;;;;;4902358;29;20078;-94
2022/01/15 01:58:39;;;;;;;16.23;9.25;;;;;;;;;;4902384;29;20047;-94
2022/01/15 02:01:05;;;;;;;16.08;9.18;;;;;;;;;;4902100;29;20088;-93
2022/01/15 02:03:31;;;;;;;15.20;9.43;;;;;;;;;;4901390;29;20140;-93
2022/01/15 02:05:57;;;;;;;14.32;9.15;;;;;;;;;;4884901;29;20044;-93
2022/01/15 02:08:23;;;;;;;15.10;9.70;;;;;;;;;;4885407;29;20032;-92
2022/01/15 02:10:50;;;;;;;17.58;10.30;;;;;;;;;;4904813;29;20373;-93
2022/01/15 02:13:18;;;;;;;17.23;9.77;;;;;;;;;;4887962;29;20037;-93
2022/01/15 02:15:44;;;;;;;17.77;10.27;;;;;;;;;;4904421;29;20104;-92
2022/01/15 02:18:11;;;;;;;19.42;10.25;;;;;;;;;;4904502;29;20328;-94
2022/01/15 02:26:03;;;;;;;19.67;10.38;;;;;;;;;;4904662;29;20548;-92
2022/01/15 02:28:30;;;;;;;20.02;11.07;;;;;;;;;;4888051;29;20037;-94
2022/01/15 02:30:57;;;;;;;16.50;10.07;;;;;;;;;;4904364;29;20021;-93
2022/01/15 02:33:24;;;;;;;19.45;11.45;;;;;;;;;;4904275;29;20024;-92
2022/01/15 02:35:51;;;;;;;17.15;10.48;;;;;;;;;;4904427;29;20029;-91
2022/01/15 02:38:17;;;;;;;22.35;11.95;;;;;;;;;;4904214;29;20107;-92
2022/01/15 02:40:43;;;;;;;18.83;10.95;;;;;;;;;;4887633;29;20028;-93
2022/01/15 02:43:15;;;;;;;20.85;11.13;;;;;;;;;;4904259;29;20082;-93
2022/01/15 02:45:44;;;;;;;;;;;;;;;;;;4888423;29;20036;-93
2022/01/15 02:48:14;;;;;;;24.42;11.30;;;;;;;;;;4887729;29;19911;-93
2022/01/15 02:50:41;;;;;;;22.63;11.23;;;;;;;;;;4887672;29;20029;-93
2022/01/15 02:53:08;;;;;;;20.80;11.73;;;;;;;;;;4903932;29;20427;-94
2022/01/15 02:55:34;;;;;;;22.58;11.68;;;;;;;;;;4904236;29;20033;-91
2022/01/15 02:58:00;;;;;;;20.48;12.10;;;;;;;;;;4903696;29;20060;-93
2022/01/15 03:00:27;;;;;;;21.83;11.07;;;;;;;;;;4887419;29;20098;-93
2022/01/15 03:02:53;;;;;;;21.17;11.60;;;;;;;;;;4852333;29;1533322;-94
2022/01/15 03:05:22;;;;;;;19.75;11.55;;;;;;;;;;4888644;29;20348;-95
2022/01/15 03:07:48;;;;;;;26.15;13.52;;;;;;;;;;4904878;29;20415;-94
2022/01/15 03:10:15;;;;;;;21.02;12.68;;;;;;;;;;4905040;29;20047;-93
2022/01/15 03:12:41;;;;;;;20.52;11.35;;;;;;;;;;4888319;29;20083;-94
2022/01/15 03:15:08;;;;;;;21.30;12.60;;;;;;;;;;4904763;29;20031;-93
2022/01/15 03:17:35;;;;;;;21.02;12.15;;;;;;;;;;4888223;29;20176;-93
2022/01/15 03:20:02;;;;;;;24.52;12.57;;;;;;;;;;4903611;29;20056;-93
2022/01/15 03:22:28;;;;;;;23.10;12.73;;;;;;;;;;4888281;29;20120;-93
2022/01/15 03:24:54;;;;;;;21.35;12.60;;;;;;;;;;4904724;29;20032;-93
2022/01/15 03:27:24;;;;;;;18.95;11.85;;;;;;;;;;4904459;29;20029;-93
2022/01/15 03:29:53;;;;;;;21.42;12.32;;;;;;;;;;4888121;29;20028;-92
2022/01/15 03:32:19;;;;;;;21.30;12.77;;;;;;;;;;4888061;29;20056;-93
2022/01/15 03:34:46;;;;;;;23.42;11.77;;;;;;;;;;4887948;29;20033;-92
2022/01/15 03:37:13;;;;;;;21.10;13.05;;;;;;;;;;4904389;29;20036;-93
2022/01/15 03:39:39;;;;;;;22.65;13.07;;;;;;;;;;4904564;29;20025;-92
2022/01/15 03:42:11;;;;;;;19.65;12.75;;;;;;;;;;4887736;29;20024;-92
2022/01/15 03:44:47;;;;;;;21.15;13.65;;;;;;;;;;4904335;29;20020;-93
2022/01/15 03:47:13;;;;;;;21.95;12.40;;;;;;;;;;4904425;29;20032;-92
2022/01/15 03:49:40;;;;;;;23.58;13.70;;;;;;;;;;4904262;29;20039;-92
2022/01/15 03:52:07;;;;;;;22.17;13.50;;;;;;;;;;4887896;29;20068;-93
2022/01/15 03:54:34;;;;;;;24.77;12.68;;;;;;;;;;4887664;29;20059;-92
2022/01/15 03:57:00;;;;;;;23.60;13.05;;;;;;;;;;4887601;29;20031;-92
2022/01/15 03:59:27;;;;;;;18.75;12.23;;;;;;;;;;4904197;29;20025;-92
2022/01/15 04:01:53;;;;;;;21.45;13.00;;;;;;;;;;4903839;29;20407;-93
2022/01/15 04:04:20;;;;;;;20.17;12.63;;;;;;;;;;4904091;29;20059;-93
2022/01/15 04:06:46;;;;;;;22.55;12.90;;;;;;;;;;4887341;29;20028;-93
2022/01/15 04:09:13;;;;;;;21.00;11.98;;;;;;;;;;4887149;29;20028;-93
2022/01/15 04:11:40;;;;;;;20.77;12.05;;;;;;;;;;4904211;29;20036;-94
2022/01/15 04:14:07;;;;;;;22.08;13.25;;;;;;;;;;4904048;29;20107;-92
2022/01/15 04:16:33;;;;;;;22.73;13.90;;;;;;;;;;4903746;29;20021;-93
2022/01/15 04:19:00;;;;;;;21.95;12.30;;;;;;;;;;4903532;29;20472;-92
2022/01/15 04:21:26;;;;;;;21.10;12.60;;;;;;;;;;4903669;29;20025;-92
2022/01/15 04:23:53;;;;;;;23.48;13.18;;;;;;;;;;4903572;29;20036;-92
2022/01/15 04:26:23;;;;;;;20.77;12.55;;;;;;;;;;4886943;29;20035;-92
2022/01/15 04:28:49;;;;;;;21.02;13.10;;;;;;;;;;4903348;29;20031;-93
2022/01/15 04:31:17;;;;;;;20.27;12.38;;;;;;;;;;4903340;29;20032;-93
2022/01/15 04:33:43;;;;;;;23.08;13.75;;;;;;;;;;4903496;29;20412;-91
2022/01/15 04:36:09;;;;;;;26.40;13.27;;;;;;;;;;4903582;29;20024;-92
2022/01/15 04:38:38;;;;;;;23.88;14.18;;;;;;;;;;4887530;29;20032;-92
2022/01/15 04:41:04;;;;;;;23.00;13.43;;;;;;;;;;4903199;29;20029;-93
2022/01/15 04:43:30;;;;;;;23.40;13.18;;;;;;;;;;4886792;29;20397;-93
2022/01/15 04:45:56;;;;;;;22.35;13.68;;;;;;;;;;4903074;29;20040;-92
2022/01/15 04:48:22;;;;;;;25.05;14.95;;;;;;;;;;4886456;29;20127;-93
2022/01/15 04:50:48;;;;;;;23.40;14.05;;;;;;;;;;4903110;29;20431;-93
2022/01/15 04:53:15;;;;;;;24.00;13.60;;;;;;;;;;4903125;29;20028;-93
2022/01/15 04:55:41;;;;;;;20.90;13.18;;;;;;;;;;4886734;29;20025;-94
2022/01/15 04:58:07;;;;;;;26.73;14.80;;;;;;;;;;4903009;29;20032;-93
2022/01/15 05:00:34;;;;;;;26.17;15.13;;;;;;;;;;4902786;29;20029;-94
2022/01/15 05:03:00;;;;;;;25.65;14.93;;;;;;;;;;4886212;29;20061;-93
2022/01/15 05:05:27;;;;;;;26.88;14.38;;;;;;;;;;4902729;29;20047;-93
2022/01/15 05:07:53;;;;;;;28.48;14.80;;;;;;;;;;4886188;29;20328;-92
2022/01/15 05:10:23;;;;;;;23.40;13.25;;;;;;;;;;4903025;29;20048;-92
2022/01/15 05:12:49;;;;;;;24.08;13.43;;;;;;;;;;4902735;29;20028;-92
2022/01/15 05:15:17;;;;;;;22.92;13.60;;;;;;;;;;4903045;29;20121;-93
2022/01/15 05:17:43;;;;;;;22.75;13.55;;;;;;;;;;4886012;29;20036;-93
2022/01/15 05:20:10;;;;;;;22.20;13.13;;;;;;;;;;4902747;29;20469;-92
2022/01/15 05:22:36;;;;;;;24.08;13.48;;;;;;;;;;4902702;29;20052;-93
2022/01/15 05:25:13;;;;;;;24.30;12.98;;;;;;;;;;4902606;29;20078;-92
2022/01/15 05:27:39;;;;;;;24.02;13.48;;;;;;;;;;4902872;29;20112;-93
2022/01/15 05:30:06;;;;;;;23.27;13.52;;;;;;;;;;4902646;29;20028;-91
2022/01/15 05:32:32;;;;;;;25.33;13.50;;;;;;;;;;4904125;29;20020;-92
2022/01/15 05:34:58;;;;;;;23.10;13.80;;;;;;;;;;4921543;29;20063;-93
2022/01/15 05:37:25;;;;;;;22.10;13.68;;;;;;;;;;4914943;29;20040;-93
2022/01/15 05:39:51;;;;;;;28.02;15.20;;;;;;;;;;4904444;29;20119;-92
2022/01/15 05:42:17;;;;;;;24.15;15.43;;;;;;;;;;4902575;29;20036;-92
2022/01/15 05:44:44;;;;;;;26.85;16.67;;;;;;;;;;4903180;29;20032;-92
2022/01/15 05:47:10;;;;;;;29.63;17.30;;;;;;;;;;4902240;29;20416;-93
2022/01/15 05:49:36;;;;;;;26.30;15.90;;;;;;;;;;4893088;29;20057;-92
2022/01/15 05:52:03;;;;;;;25.30;15.48;;;;;;;;;;4909569;29;20360;-91
2022/01/15 05:54:29;;;;;;;24.58;15.80;;;;;;;;;;4904692;29;20433;-90
2022/01/15 05:56:55;;;;;;;27.30;16.27;;;;;;;;;;4921367;29;20035;-90
2022/01/15 05:59:22;;;;;;;22.63;14.85;;;;;;;;;;4903507;29;20032;-89
2022/01/15 06:01:48;;;;;;;26.13;15.77;;;;;;;;;;4916037;29;20031;-88
2022/01/15 06:04:14;;;;;;;34.60;19.45;;;;;;;;;;4904447;29;20032;-91
2022/01/15 06:06:40;;;;;;;29.48;19.05;;;;;;;;;;4901097;29;20042;-90
2022/01/15 06:09:06;;;;;;;27.58;17.00;;;;;;;;;;4921040;29;20475;-90
2022/01/15 06:11:34;;;;;;;30.65;17.10;;;;;;;;;;4904372;29;20028;-92
2022/01/15 06:14:00;;;;;;;26.60;16.25;;;;;;;;;;4920859;29;20060;-92
2022/01/15 06:16:27;;;;;;;34.25;20.83;;;;;;;;;;4921137;29;20108;-90
2022/01/15 06:18:53;;;;;;;33.53;19.33;;;;;;;;;;4921170;29;20032;-90
2022/01/15 06:21:19;;;;;;;35.30;21.27;;;;;;;;;;4920955;29;20412;-91
2022/01/15 06:23:45;;;;;;;37.53;21.58;;;;;;;;;;4904326;29;20128;-90
2022/01/15 06:26:12;;;;;;;40.65;22.52;;;;;;;;;;4920860;29;20032;-90
2022/01/15 06:28:38;;;;;;;62.70;31.48;;;;;;;;;;4920853;29;20035;-91
2022/01/15 06:31:04;;;;;;;138.18;56.75;;;;;;;;;;4920972;29;20028;-91
2022/01/15 06:33:30;;;;;;;130.02;58.65;;;;;;;;;;4920760;29;20040;-90
2022/01/15 06:35:56;;;;;;;135.55;64.30;;;;;;;;;;4903969;29;20032;-90
2022/01/15 06:38:23;;;;;;;134.57;64.95;;;;;;;;;;4920923;29;20028;-90
2022/01/15 06:40:49;;;;;;;118.20;55.83;;;;;;;;;;4904049;29;20036;-91
2022/01/15 06:43:15;;;;;;;95.47;44.85;;;;;;;;;;4920656;29;20104;-90
2022/01/15 06:45:41;;;;;;;84.22;41.83;;;;;;;;;;4920662;29;20419;-90
2022/01/15 06:48:07;;;;;;;47.42;26.42;;;;;;;;;;4920606;29;20054;-89
2022/01/15 06:50:33;;;;;;;46.65;24.45;;;;;;;;;;4920748;29;20039;-90
2022/01/15 06:53:00;;;;;;;39.28;21.83;;;;;;;;;;4910202;29;20032;-89
2022/01/15 06:55:26;;;;;;;42.70;22.15;;;;;;;;;;4903830;29;20442;-90
2022/01/15 06:57:52;;;;;;;46.28;23.67;;;;;;;;;;4909413;29;20489;-90
2022/01/15 07:00:19;;;;;;;40.95;22.02;;;;;;;;;;4924205;29;20051;-91
2022/01/15 07:02:45;;;;;;;42.22;23.65;;;;;;;;;;4923682;29;20052;-91
2022/01/15 07:05:11;;;;;;;39.92;22.92;;;;;;;;;;4907016;29;20047;-91
2022/01/15 07:07:43;;;;;;;34.45;21.45;;;;;;;;;;4923829;29;20055;-91
2022/01/15 07:10:09;;;;;;;37.47;21.10;;;;;;;;;;4923490;29;20027;-91
2022/01/15 07:12:35;;;;;;;36.38;20.95;;;;;;;;;;4923776;29;20076;-90
2022/01/15 07:15:02;;;;;;;39.08;20.30;;;;;;;;;;4912632;29;20025;-91
2022/01/15 07:17:28;;;;;;;33.00;20.05;;;;;;;;;;4888655;29;20051;-91
2022/01/15 07:19:54;;;;;;;34.75;20.55;;;;;;;;;;4904858;29;20052;-91
2022/01/15 07:22:20;;;;;;;38.70;22.52;;;;;;;;;;4904578;29;20024;-90
2022/01/15 07:24:46;;;;;;;41.03;23.17;;;;;;;;;;4904757;29;20319;-90
2022/01/15 07:27:12;;;;;;;50.03;28.15;;;;;;;;;;4904520;29;20033;-90
2022/01/15 07:29:39;;;;;;;59.67;31.65;;;;;;;;;;4888159;29;20025;-90
2022/01/15 07:32:05;;;;;;;63.75;34.25;;;;;;;;;;4887788;29;20092;-90
2022/01/15 07:34:32;;;;;;;54.55;29.67;;;;;;;;;;4904509;29;20041;-90
2022/01/15 07:36:58;;;;;;;54.28;28.90;;;;;;;;;;4904619;29;20047;-90
2022/01/15 07:39:25;;;;;;;53.97;29.50;;;;;;;;;;4904636;29;20447;-90
2022/01/15 07:41:51;;;;;;;59.60;30.58;;;;;;;;;;4887968;29;20079;-90
2022/01/15 07:44:17;;;;;;;61.33;30.92;;;;;;;;;;4888130;29;20123;-90
2022/01/15 07:46:44;;;;;;;63.33;33.55;;;;;;;;;;4904669;29;20029;-90
2022/01/15 07:49:10;;;;;;;64.68;34.63;;;;;;;;;;4904405;29;20060;-90
2022/01/15 07:51:36;;;;;;;63.55;32.25;;;;;;;;;;4887579;29;20032;-90
2022/01/15 07:54:02;;;;;;;54.30;30.27;;;;;;;;;;4887667;29;20020;-90
2022/01/15 07:56:28;;;;;;;57.75;30.52;;;;;;;;;;4904020;29;20032;-90
2022/01/15 07:58:54;;;;;;;66.53;34.08;;;;;;;;;;4887674;29;20172;-90
2022/01/15 08:01:20;;;;;;;83.38;43.45;;;;;;;;;;4904470;29;20333;-89
2022/01/15 08:03:48;;;;;;;88.43;45.17;;;;;;;;;;4903939;29;20143;-90
2022/01/15 08:06:14;;;;;;;93.70;48.60;;;;;;;;;;4903539;29;20029;-90
2022/01/15 08:08:56;;;;;;;99.25;48.65;;;;;;;;;;4887630;29;20041;-89
2022/01/15 08:11:22;;;;;;;99.55;47.78;;;;;;;;;;4904138;29;20031;-90
2022/01/15 08:13:48;;;;;;;92.88;47.70;;;;;;;;;;4903920;29;20035;-90
2022/01/15 08:16:14;;;;;;;80.78;41.80;;;;;;;;;;4903969;29;20021;-90
2022/01/15 08:18:40;;;;;;;102.50;48.25;;;;;;;;;;4903732;29;20048;-90
2022/01/15 08:21:06;;;;;;;87.35;46.13;;;;;;;;;;4887235;29;20454;-89
2022/01/15 08:23:33;;;;;;;89.15;46.10;;;;;;;;;;4887113;29;20039;-91
2022/01/15 08:25:59;;;;;;;77.28;43.90;;;;;;;;;;4903327;29;20032;-90
2022/01/15 08:28:26;;;;;;;111.75;55.60;;;;;;;;;;4903772;29;20080;-90
2022/01/15 08:30:52;;;;;;;108.55;49.58;;;;;;;;;;4903260;29;20415;-91
2022/01/15 08:33:18;;;;;;;109.57;50.22;;;;;;;;;;4886821;29;20048;-90
2022/01/15 08:35:44;;;;;;;100.88;47.15;;;;;;;;;;4903482;29;20025;-90
2022/01/15 08:38:10;;;;;;;93.55;45.20;;;;;;;;;;4886903;29;20068;-91
2022/01/15 08:40:36;;;;;;;75.13;38.83;;;;;;;;;;4886885;29;20025;-91
2022/01/15 08:43:03;;;;;;;61.92;32.47;;;;;;;;;;4886843;29;20040;-90
2022/01/15 08:45:30;;;;;;;62.83;32.17;;;;;;;;;;4886717;29;20036;-91
2022/01/15 08:47:56;;;;;;;54.83;31.40;;;;;;;;;;4903145;29;20028;-91
2022/01/15 08:50:23;;;;;;;67.90;35.03;;;;;;;;;;4903259;29;20024;-91
2022/01/15 08:52:49;;;;;;;66.38;34.78;;;;;;;;;;4886976;29;20373;-90
2022/01/15 08:55:16;;;;;;;80.85;41.33;;;;;;;;;;4903069;29;20025;-90
2022/01/15 08:57:42;;;;;;;94.10;42.53;;;;;;;;;;4903166;29;20044;-90
2022/01/15 09:00:10;;;;;;;92.15;42.88;;;;;;;;;;4886669;29;20032;-91
2022/01/15 09:02:36;;;;;;;85.63;44.10;;;;;;;;;;4902948;29;20049;-93
2022/01/15 09:05:02;;;;;;;75.18;35.78;;;;;;;;;;4886641;29;20331;-90
2022/01/15 09:07:28;;;;;;;79.07;39.63;;;;;;;;;;4902807;29;20029;-91
2022/01/15 09:09:54;;;;;;;67.00;36.17;;;;;;;;;;4886218;29;20116;-91
2022/01/15 09:12:22;;;;;;;71.30;37.83;;;;;;;;;;4902916;29;20028;-90
2022/01/15 09:14:52;;;;;;;67.15;37.15;;;;;;;;;;4886383;29;20027;-91
2022/01/15 09:17:18;;;;;;;64.03;34.92;;;;;;;;;;4902372;29;20024;-91
2022/01/15 09:19:44;;;;;;;69.57;39.90;;;;;;;;;;4902167;29;20408;-91
2022/01/15 09:22:11;;;;;;;74.65;42.40;;;;;;;;;;4902814;29;20431;-91
2022/01/15 09:24:37;;;;;;;79.97;45.45;;;;;;;;;;4886062;29;20051;-91
2022/01/15 09:30:12;;;;;;;86.18;43.92;;;;;;;;;;4886239;29;20368;-91
2022/01/15 09:32:35;;;;;;;82.60;46.53;;;;;;;;;;4902707;29;20064;-91
2022/01/15 09:35:01;;;;;;;83.38;45.97;;;;;;;;;;4902502;29;20036;-91
2022/01/15 09:37:27;;;;;;;95.32;50.28;;;;;;;;;;4885706;29;20043;-92
2022/01/15 09:39:53;;;;;;;88.85;44.80;;;;;;;;;;4902524;29;20032;-91
2022/01/15 09:42:21;;;;;;;95.97;50.35;;;;;;;;;;4886002;29;20036;-91
2022/01/15 09:44:48;;;;;;;96.10;51.03;;;;;;;;;;4885971;29;20036;-92
2022/01/15 09:47:16;;;;;;;73.35;39.25;;;;;;;;;;4902112;29;20077;-91
2022/01/15 09:49:45;;;;;;;69.25;37.72;;;;;;;;;;4902526;29;20036;-90
2022/01/15 09:52:12;;;;;;;56.50;33.17;;;;;;;;;;4885883;29;20056;-91
2022/01/15 09:55:15;;;;;;;57.13;32.78;;;;;;;;;;4902578;29;20017;-90
2022/01/15 09:57:41;;;;;;;52.17;29.85;;;;;;;;;;4885881;29;20039;-92
2022/01/15 10:00:14;;;;;;;45.70;26.48;;;;;;;;;;4885772;29;20039;-91
2022/01/15 10:02:41;;;;;;;43.22;25.25;;;;;;;;;;4902071;29;20344;-91
2022/01/15 10:05:08;;;;;;;45.42;24.80;;;;;;;;;;4885759;29;20041;-91
2022/01/15 10:07:34;;;;;;;51.22;27.88;;;;;;;;;;4902020;29;20045;-92
2022/01/15 10:10:20;;;;;;;59.13;30.67;;;;;;;;;;4902031;29;20120;-91
2022/01/15 10:12:47;;;;;;;50.33;26.55;;;;;;;;;;4902147;29;20444;-90
2022/01/15 10:15:15;;;;;;;41.50;25.15;;;;;;;;;;4901990;29;20056;-90
2022/01/15 10:17:43;;;;;;;47.47;26.92;;;;;;;;;;4921434;29;20054;-90
2022/01/15 10:20:21;;;;;;;57.53;32.00;;;;;;;;;;4921756;29;20024;-91
2022/01/15 10:22:49;;;;;;;59.65;34.53;;;;;;;;;;4910367;29;20091;-91
2022/01/15 10:28:19;;;;;;;50.35;26.83;;;;;;;;;;4902521;29;20076;-90
2022/01/15 10:30:46;;;;;;;55.75;26.73;;;;;;;;;;4903832;29;20077;-93
2022/01/15 10:33:12;;;;;;;64.15;28.52;;;;;;;;;;4905512;29;20036;-93
2022/01/15 10:35:39;;;;;;;48.35;27.45;;;;;;;;;;4904384;29;20040;-93
2022/01/15 10:38:08;;;;;;;32.00;20.45;;;;;;;;;;4905518;29;20037;-92
2022/01/15 10:40:40;;;;;;;32.65;20.15;;;;;;;;;;4905713;29;20103;-93
2022/01/15 10:43:06;;;;;;;33.08;20.63;;;;;;;;;;4905787;29;20101;-92
2022/01/15 10:45:34;;;;;;;28.05;18.20;;;;;;;;;;4905445;29;20416;-93
2022/01/15 10:48:02;;;;;;;32.38;20.10;;;;;;;;;;4905357;29;20032;-92
2022/01/15 10:50:29;;;;;;;34.97;21.73;;;;;;;;;;4909119;29;20036;-92
2022/01/15 10:52:57;;;;;;;40.13;23.90;;;;;;;;;;4924086;29;20031;-91
2022/01/15 10:55:30;;;;;;;32.22;18.95;;;;;;;;;;4907888;29;20076;-92
2022/01/15 10:57:58;;;;;;;30.90;20.13;;;;;;;;;;4924138;29;20056;-91
2022/01/15 11:00:37;;;;;;;35.20;22.48;;;;;;;;;;4924192;29;20060;-92
2022/01/15 11:03:07;;;;;;;35.17;21.55;;;;;;;;;;4923815;29;20051;-94
2022/01/15 11:05:35;;;;;;;33.25;20.75;;;;;;;;;;4907380;29;20138;-91
2022/01/15 11:08:06;;;;;;;33.60;21.92;;;;;;;;;;4924435;29;20072;-93
2022/01/15 11:10:50;;;;;;;28.42;18.48;;;;;;;;;;4927563;29;20016;-92
2022/01/15 11:13:17;;;;;;;26.73;17.35;;;;;;;;;;4923530;29;20123;-95
2022/01/15 11:15:44;;;;;;;34.83;21.95;;;;;;;;;;4907138;29;20379;-93
2022/01/15 11:18:15;;;;;;;24.00;15.32;;;;;;;;;;4907178;29;20059;-95
2022/01/15 11:20:45;;;;;;;28.42;17.75;;;;;;;;;;4907193;29;20048;-95
2022/01/15 11:23:11;;;;;;;29.60;18.75;;;;;;;;;;4907056;29;20028;-95
2022/01/15 11:25:38;;;;;;;28.40;17.95;;;;;;;;;;4923582;29;20024;-96
2022/01/15 11:28:07;;;;;;;33.53;20.25;;;;;;;;;;4895721;29;20025;-95
2022/01/15 11:30:33;;;;;;;30.05;18.88;;;;;;;;;;4904930;29;20128;-96
2022/01/15 11:33:00;;;;;;;33.72;20.92;;;;;;;;;;4918449;29;20038;-95
2022/01/15 11:35:40;;;;;;;42.72;25.17;;;;;;;;;;4923740;29;20020;-94
2022/01/15 11:38:06;;;;;;;77.75;42.80;;;;;;;;;;4922963;29;20032;-95
2022/01/15 11:40:32;;;;;;;34.85;22.77;;;;;;;;;;4921225;29;20428;-96
2022/01/15 11:43:18;;;;;;;30.60;19.48;;;;;;;;;;4919195;29;20032;-95
2022/01/15 11:45:44;;;;;;;30.63;19.92;;;;;;;;;;4923566;29;20121;-96
2022/01/15 11:48:21;;;;;;;33.63;20.08;;;;;;;;;;4921516;29;20095;-93
2022/01/15 11:51:07;;;;;;;33.15;18.83;;;;;;;;;;4917220;29;20037;-94
2022/01/15 11:53:54;;;;;;;35.88;18.90;;;;;;;;;;4887677;29;20072;-94
2022/01/15 11:56:22;;;;;;;38.17;22.23;;;;;;;;;;4920344;29;20415;-95
2022/01/15 11:58:48;;;;;;;36.72;22.38;;;;;;;;;;4922834;29;20039;-95
2022/01/15 12:01:33;;;;;;;47.08;28.65;;;;;;;;;;4941170;29;20083;-94
2022/01/15 12:04:17;;;;;;;45.08;27.15;;;;;;;;;;4942072;29;20047;-95
2022/01/15 12:09:34;;;;;;;37.10;22.08;;;;;;;;;;4942094;29;20027;-93
2022/01/15 12:12:00;;;;;;;;;;;;;;;;;;4942517;29;20441;-94
2022/01/15 12:14:45;;;;;;;38.20;23.00;;;;;;;;;;4923314;29;19919;-95
2022/01/15 12:17:23;;;;;;;34.70;22.17;;;;;;;;;;4923092;29;20020;-94
2022/01/15 12:19:50;;;;;;;40.17;25.60;;;;;;;;;;4906113;29;20088;-94
2022/01/15 12:22:35;;;;;;;39.97;24.33;;;;;;;;;;4906029;29;20051;-94
2022/01/15 12:28:09;;;;;;;36.70;21.95;;;;;;;;;;4922810;29;20035;-95
2022/01/15 12:30:43;;;;;;;35.05;20.75;;;;;;;;;;4906021;29;20111;-96
2022/01/15 12:33:12;;;;;;;37.65;22.48;;;;;;;;;;4922422;29;20033;-94
2022/01/15 12:35:40;;;;;;;42.28;23.67;;;;;;;;;;4922234;29;20031;-93
2022/01/15 12:38:07;;;;;;;34.70;20.35;;;;;;;;;;4922364;29;20478;-95
2022/01/15 12:40:33;;;;;;;37.38;20.48;;;;;;;;;;4922333;29;20043;-93
2022/01/15 12:43:01;;;;;;;30.73;18.80;;;;;;;;;;4922214;29;20429;-94
2022/01/15 12:45:27;;;;;;;40.05;23.80;;;;;;;;;;4905529;29;20035;-95
2022/01/15 12:47:53;;;;;;;42.47;23.48;;;;;;;;;;4922094;29;20024;-94
2022/01/15 12:50:20;;;;;;;40.83;22.35;;;;;;;;;;4905481;29;20024;-93
2022/01/15 12:52:46;;;;;;;36.97;22.67;;;;;;;;;;4921589;29;20028;-93
2022/01/15 12:55:12;;;;;;;41.22;22.77;;;;;;;;;;4905276;29;20028;-94
2022/01/15 12:57:46;;;;;;;31.40;17.25;;;;;;;;;;4905614;29;20059;-94
2022/01/15 13:00:14;;;;;;;26.75;16.00;;;;;;;;;;4905345;29;20034;-93
2022/01/15 13:02:41;;;;;;;26.15;15.40;;;;;;;;;;4921752;29;20443;-94
2022/01/15 13:05:10;;;;;;;34.47;19.60;;;;;;;;;;4905234;29;20024;-94
2022/01/15 13:07:49;;;;;;;35.33;19.88;;;;;;;;;;4921649;29;20030;-94
2022/01/15 13:10:25;;;;;;;48.55;23.42;;;;;;;;;;4922366;29;20028;-94
2022/01/15 13:12:51;;;;;;;41.78;20.27;;;;;;;;;;4921812;29;20017;-94
2022/01/15 13:15:24;;;;;;;51.70;24.15;;;;;;;;;;4921588;29;20054;-95
2022/01/15 13:17:50;;;;;;;39.13;20.33;;;;;;;;;;4921493;29;20036;-95
2022/01/15 13:20:35;;;;;;;37.80;20.35;;;;;;;;;;4921399;29;20111;-94
2022/01/15 13:23:03;;;;;;;34.78;19.40;;;;;;;;;;4921649;29;20040;-93
2022/01/15 13:25:30;;;;;;;39.40;22.23;;;;;;;;;;4904933;29;20083;-94
2022/01/15 13:27:57;;;;;;;39.88;20.80;;;;;;;;;;4921424;29;20028;-94
2022/01/15 13:30:24;;;;;;;42.08;22.80;;;;;;;;;;4921409;29;20039;-94
2022/01/15 13:33:01;;;;;;;49.38;24.80;;;;;;;;;;4904931;29;20064;-95
2022/01/15 13:35:34;;;;;;;29.17;18.25;;;;;;;;;;4921750;29;20047;-94
2022/01/15 13:38:02;;;;;;;37.70;18.90;;;;;;;;;;4921590;29;20031;-94
2022/01/15 13:40:29;;;;;;;45.83;24.95;;;;;;;;;;4904719;29;20032;-94
2022/01/15 13:42:56;;;;;;;49.75;25.02;;;;;;;;;;4904468;29;20427;-94
2022/01/15 13:45:23;;;;;;;43.85;24.42;;;;;;;;;;4921579;29;20470;-93
2022/01/15 13:47:49;;;;;;;36.17;19.88;;;;;;;;;;4901335;29;20028;-93
2022/01/15 13:53:13;;;;;;;32.72;19.13;;;;;;;;;;4902563;29;20071;-94
2022/01/15 13:55:39;;;;;;;25.38;16.17;;;;;;;;;;4885715;29;20361;-94
2022/01/15 13:58:13;;;;;;;27.27;16.17;;;;;;;;;;4885508;29;20051;-95
2022/01/15 14:00:39;;;;;;;35.83;20.27;;;;;;;;;;4885864;29;20033;-94
2022/01/15 14:03:06;;;;;;;29.27;18.17;;;;;;;;;;4902241;29;20143;-94
2022/01/15 14:05:32;;;;;;;31.77;19.05;;;;;;;;;;4905367;29;20080;-94
2022/01/15 14:07:58;;;;;;;37.45;21.67;;;;;;;;;;4905987;29;20024;-94
2022/01/15 14:10:25;;;;;;;91.85;48.97;;;;;;;;;;4889926;29;20173;-95
2022/01/15 14:13:06;;;;;;;113.10;64.47;;;;;;;;;;4906351;29;20027;-93
2022/01/15 14:15:39;;;;;;;138.43;76.40;;;;;;;;;;4905209;29;20036;-94
2022/01/15 14:18:11;;;;;;;108.18;59.78;;;;;;;;;;4905986;29;20056;-95
2022/01/15 14:20:52;;;;;;;102.88;47.45;;;;;;;;;;4906043;29;20104;-92
2022/01/15 14:23:33;;;;;;;79.25;39.95;;;;;;;;;;4906188;29;20087;-95
2022/01/15 14:25:59;;;;;;;88.95;43.90;;;;;;;;;;4889224;29;20036;-95
2022/01/15 14:28:25;;;;;;;95.80;45.25;;;;;;;;;;4905576;29;20035;-94
2022/01/15 14:43:52;;;;;;;101.15;57.28;;;;;;;;;;5095631;27;20405;-92
2022/01/15 14:46:18;;;;;;;87.28;51.58;;;;;;;;;;5095012;28;20127;-92
2022/01/15 14:51:48;;;;;;;58.10;37.72;;;;;;;;;;5094987;28;20475;-92
2022/01/15 14:54:14;;;;;;;43.22;26.98;;;;;;;;;;5095316;28;20028;-96
2022/01/15 14:56:40;;;;;;;43.45;27.60;;;;;;;;;;5090755;28;20051;-94
2022/01/15 14:59:07;;;;;;;46.50;27.98;;;;;;;;;;5093799;28;20020;-93
2022/01/15 15:01:33;;;;;;;47.20;27.05;;;;;;;;;;5094314;28;20131;-92
2022/01/15 15:10:07;;;;;;;67.82;35.20;;;;;;;;;;5094796;28;20035;-93
2022/01/15 15:12:37;;;;;;;69.32;35.25;;;;;;;;;;5076616;28;20039;-92
2022/01/15 15:15:05;;;;;;;75.45;42.33;;;;;;;;;;5094936;28;20017;-91
2022/01/15 15:17:31;;;;;;;83.32;44.42;;;;;;;;;;5094570;28;20341;-91
2022/01/15 15:19:57;;;;;;;78.63;40.55;;;;;;;;;;5094365;28;20031;-90
2022/01/15 15:22:23;;;;;;;73.22;38.03;;;;;;;;;;5094905;28;20402;-91
2022/01/15 15:24:50;;;;;;;81.18;42.28;;;;;;;;;;5093916;28;20082;-91
2022/01/15 15:27:16;;;;;;;83.20;43.25;;;;;;;;;;5093669;28;20074;-90